createdAt,value
2022-09-17T00:01:31.416Z,65.07
2022-09-17T00:04:04.817Z,65.46
2022-09-17T00:06:35.318Z,65.39
2022-09-17T00:09:03.284Z,65.83
2022-09-17T00:11:35.517Z,65.91
2022-09-17T00:14:06.057Z,66.56
2022-09-17T00:16:38.071Z,65.81
2022-09-17T00:19:07.151Z,65.69
2022-09-17T00:21:34.914Z,66.07
2022-09-17T00:24:06.350Z,66.39
2022-09-17T00:26:36.755Z,66.28
2022-09-17T00:29:06.156Z,66.43
2022-09-17T00:31:34.933Z,65.98
2022-09-17T00:34:04.708Z,65.67
2022-09-17T00:36:35.532Z,66.25
2022-09-17T00:39:04.397Z,66.70
2022-09-17T00:41:34.235Z,65.91
2022-09-17T00:44:43.200Z,66.03
2022-09-17T00:47:19.234Z,66.17
2022-09-17T00:49:48.658Z,66.20
2022-09-17T00:52:19.649Z,65.99
2022-09-17T00:54:53.842Z,66.00
2022-09-17T00:57:22.540Z,66.57
2022-09-17T00:59:52.227Z,66.46
2022-09-17T01:02:21.654Z,66.26
2022-09-17T01:04:50.001Z,66.15
2022-09-17T01:07:32.068Z,66.22
2022-09-17T01:10:07.885Z,66.27
2022-09-17T01:12:51.287Z,66.07
2022-09-17T01:15:30.363Z,66.01
2022-09-17T01:18:12.033Z,66.58
2022-09-17T01:21:08.533Z,66.68
2022-09-17T01:24:20.339Z,66.27
2022-09-17T01:27:14.819Z,66.67
2022-09-17T01:30:00.785Z,66.15
2022-09-17T01:32:37.101Z,66.58
2022-09-17T01:35:12.312Z,66.80
2022-09-17T01:37:50.282Z,66.27
2022-09-17T01:40:25.780Z,66.45
2022-09-17T01:43:00.450Z,67.00
2022-09-17T01:45:35.419Z,66.48
2022-09-17T01:48:12.528Z,66.60
2022-09-17T01:50:44.449Z,66.96
2022-09-17T01:53:14.730Z,67.07
2022-09-17T01:55:47.176Z,66.76
2022-09-17T01:58:20.824Z,66.67
2022-09-17T02:00:56.026Z,66.55
2022-09-17T02:03:31.046Z,66.66
2022-09-17T02:06:03.233Z,66.90
2022-09-17T02:08:37.573Z,67.02
2022-09-17T02:11:09.998Z,66.47
2022-09-17T02:13:43.669Z,66.64
2022-09-17T02:16:14.891Z,66.58
2022-09-17T02:18:51.162Z,66.54
2022-09-17T02:21:25.719Z,67.01
2022-09-17T02:24:04.398Z,67.13
2022-09-17T02:26:33.921Z,66.85
2022-09-17T02:29:07.977Z,66.96
2022-09-17T02:31:35.829Z,67.02
2022-09-17T02:34:06.690Z,67.24
2022-09-17T02:36:35.626Z,67.63
2022-09-17T02:39:05.611Z,66.88
2022-09-17T02:41:45.378Z,67.56
2022-09-17T02:44:22.932Z,67.16
2022-09-17T02:47:19.518Z,67.46
2022-09-17T02:50:16.966Z,66.60
2022-09-17T02:52:59.479Z,67.28
2022-09-17T02:55:33.955Z,66.58
2022-09-17T02:58:13.097Z,67.22
2022-09-17T03:00:41.604Z,67.04
2022-09-17T03:03:16.090Z,67.34
2022-09-17T03:05:45.628Z,67.01
2022-09-17T03:08:16.002Z,67.26
2022-09-17T03:10:43.714Z,66.62
2022-09-17T03:13:11.491Z,66.84
2022-09-17T03:15:39.666Z,66.40
2022-09-17T03:18:07.428Z,66.99
2022-09-17T03:20:35.670Z,66.50
2022-09-17T03:23:04.905Z,66.88
2022-09-17T03:25:32.649Z,66.63
2022-09-17T03:28:00.824Z,66.24
2022-09-17T03:30:28.616Z,66.83
2022-09-17T03:32:56.753Z,66.25
2022-09-17T03:35:25.167Z,66.70
2022-09-17T03:37:52.872Z,66.79
2022-09-17T03:40:22.461Z,66.68
2022-09-17T03:42:50.209Z,66.64
2022-09-17T03:45:18.421Z,66.55
2022-09-17T03:47:46.145Z,66.32
2022-09-17T03:50:13.934Z,66.40
2022-09-17T03:52:42.118Z,66.46
2022-09-17T03:55:11.047Z,66.47
2022-09-17T03:57:40.692Z,66.72
2022-09-17T04:00:09.360Z,66.13
2022-09-17T04:02:37.243Z,66.60
2022-09-17T04:05:06.352Z,65.85
2022-09-17T04:07:34.109Z,66.15
2022-09-17T04:10:03.018Z,65.96
2022-09-17T04:12:30.716Z,66.37
2022-09-17T04:14:59.838Z,66.34
2022-09-17T04:17:28.702Z,66.59
2022-09-17T04:19:56.410Z,66.43
2022-09-17T04:22:24.233Z,66.35
2022-09-17T04:24:52.424Z,66.63
2022-09-17T04:27:20.645Z,66.53
2022-09-17T04:29:48.377Z,66.02
2022-09-17T04:32:17.483Z,66.25
2022-09-17T04:34:45.628Z,66.47
2022-09-17T04:37:13.359Z,66.44
2022-09-17T04:39:41.101Z,65.80
2022-09-17T04:42:09.890Z,65.94
2022-09-17T04:44:37.614Z,66.47
2022-09-17T04:47:05.660Z,66.23
2022-09-17T04:49:34.776Z,65.80
2022-09-17T04:52:02.914Z,66.27
2022-09-17T04:54:31.198Z,65.75
2022-09-17T04:57:00.705Z,66.12
2022-09-17T04:59:28.934Z,66.43
2022-09-17T05:01:56.707Z,66.00
2022-09-17T05:04:24.791Z,66.23
2022-09-17T05:06:54.770Z,66.30
2022-09-17T05:09:22.511Z,65.87
2022-09-17T05:11:50.249Z,65.97
2022-09-17T05:14:18.465Z,66.20
2022-09-17T05:16:46.866Z,65.97
2022-09-17T05:19:15.063Z,66.24
2022-09-17T05:21:43.044Z,66.36
2022-09-17T05:24:12.350Z,66.06
2022-09-17T05:26:40.904Z,65.63
2022-09-17T05:29:08.760Z,65.83
2022-09-17T05:31:37.166Z,66.11
2022-09-17T05:34:05.243Z,66.14
2022-09-17T05:36:32.957Z,65.91
2022-09-17T05:39:01.866Z,65.84
2022-09-17T05:41:30.964Z,66.29
2022-09-17T05:43:59.173Z,66.22
2022-09-17T05:46:26.989Z,66.48
2022-09-17T05:48:56.768Z,65.97
2022-09-17T05:51:25.205Z,66.59
2022-09-17T05:53:55.346Z,66.35
2022-09-17T05:56:24.464Z,66.97
2022-09-17T05:58:56.678Z,66.38
2022-09-17T06:01:25.048Z,66.59
2022-09-17T06:03:53.783Z,66.74
2022-09-17T06:06:21.622Z,66.52
2022-09-17T06:08:49.838Z,66.58
2022-09-17T06:11:17.576Z,67.06
2022-09-17T06:13:45.945Z,66.62
2022-09-17T06:16:15.839Z,66.95
2022-09-17T06:18:43.578Z,66.77
2022-09-17T06:21:11.841Z,67.12
2022-09-17T06:23:40.007Z,67.15
2022-09-17T06:26:07.861Z,67.14
2022-09-17T06:28:41.215Z,67.32
2022-09-17T06:31:11.029Z,67.01
2022-09-17T06:33:40.996Z,66.96
2022-09-17T06:36:13.624Z,67.18
2022-09-17T06:38:42.875Z,67.18
2022-09-17T06:41:10.657Z,66.96
2022-09-17T06:43:38.522Z,67.48
2022-09-17T06:46:09.474Z,67.18
2022-09-17T06:48:38.379Z,67.06
2022-09-17T06:51:09.446Z,67.08
2022-09-17T06:53:38.114Z,67.07
2022-09-17T06:56:07.361Z,67.35
2022-09-17T06:58:37.391Z,67.47
2022-09-17T07:01:05.890Z,67.32
2022-09-17T07:03:34.608Z,67.71
2022-09-17T07:06:03.080Z,67.53
2022-09-17T07:08:34.411Z,67.63
2022-09-17T07:11:02.349Z,67.27
2022-09-17T07:13:30.313Z,67.32
2022-09-17T07:15:59.844Z,67.76
2022-09-17T07:18:28.288Z,68.20
2022-09-17T07:20:57.136Z,67.97
2022-09-17T07:23:25.542Z,67.97
2022-09-17T07:25:55.451Z,67.52
2022-09-17T07:28:23.955Z,67.85
2022-09-17T07:30:52.482Z,68.12
2022-09-17T07:33:23.370Z,68.01
2022-09-17T07:35:55.022Z,68.16
2022-09-17T07:38:23.365Z,68.13
2022-09-17T07:40:58.885Z,67.87
2022-09-17T07:43:27.463Z,68.32
2022-09-17T07:45:55.758Z,68.33
2022-09-17T07:48:24.197Z,68.55
2022-09-17T07:50:51.924Z,68.37
2022-09-17T07:53:20.091Z,68.55
2022-09-17T07:55:52.960Z,69.09
2022-09-17T07:58:23.009Z,68.00
2022-09-17T08:00:51.069Z,68.17
2022-09-17T08:03:18.832Z,68.26
2022-09-17T08:05:48.352Z,68.29
2022-09-17T08:08:20.908Z,69.15
2022-09-17T08:10:49.087Z,68.76
2022-09-17T08:13:16.823Z,68.42
2022-09-17T08:15:45.991Z,68.50
2022-09-17T08:18:16.663Z,68.58
2022-09-17T08:20:44.378Z,68.27
2022-09-17T08:23:12.685Z,68.18
2022-09-17T08:25:40.401Z,67.63
2022-09-17T08:28:08.260Z,67.31
2022-09-17T08:30:36.386Z,67.45
2022-09-17T08:33:05.482Z,67.03
2022-09-17T08:35:33.620Z,67.44
2022-09-17T08:38:01.712Z,67.30
2022-09-17T08:40:29.798Z,67.44
2022-09-17T08:43:02.461Z,67.89
2022-09-17T08:45:31.390Z,68.23
2022-09-17T08:48:05.067Z,68.50
2022-09-17T08:50:39.479Z,68.25
2022-09-17T08:53:29.296Z,68.23
2022-09-17T08:56:02.792Z,67.69
2022-09-17T08:58:42.254Z,66.57
2022-09-17T09:01:34.390Z,67.09
2022-09-17T09:04:33.577Z,66.75
2022-09-17T09:07:08.045Z,66.48
2022-09-17T09:09:39.084Z,67.44
2022-09-17T09:12:12.031Z,66.55
2022-09-17T09:14:47.514Z,66.45
2022-09-17T09:17:18.487Z,65.88
2022-09-17T09:19:47.709Z,65.46
2022-09-17T09:22:33.356Z,65.09
2022-09-17T09:25:09.426Z,65.08
2022-09-17T09:27:45.077Z,65.38
2022-09-17T09:30:14.952Z,65.01
2022-09-17T09:32:54.658Z,65.82
2022-09-17T09:35:24.820Z,66.03
2022-09-17T09:38:00.571Z,64.98
2022-09-17T09:40:37.091Z,65.39
2022-09-17T09:43:15.980Z,65.70
2022-09-17T09:46:08.785Z,65.63
2022-09-17T09:48:45.553Z,65.28
2022-09-17T09:51:27.161Z,65.49
2022-09-17T09:54:09.856Z,64.33
2022-09-17T09:56:53.127Z,64.39
2022-09-17T09:59:21.327Z,64.27
2022-09-17T10:01:49.428Z,64.67
2022-09-17T10:04:21.764Z,64.38
2022-09-17T10:06:52.456Z,63.87
2022-09-17T10:09:23.774Z,64.38
2022-09-17T10:12:02.402Z,65.61
2022-09-17T10:14:32.768Z,64.24
2022-09-17T10:17:29.195Z,64.38
2022-09-17T10:20:24.495Z,64.39
2022-09-17T10:22:52.392Z,63.80
2022-09-17T10:25:29.987Z,63.67
2022-09-17T10:28:00.591Z,63.86
2022-09-17T10:30:28.570Z,63.19
2022-09-17T10:33:13.851Z,63.12
2022-09-17T10:35:41.564Z,62.13
2022-09-17T10:38:29.186Z,61.81
2022-09-17T10:41:11.528Z,62.84
2022-09-17T10:43:39.510Z,62.96
2022-09-17T10:46:11.530Z,63.74
2022-09-17T10:48:43.104Z,61.78
2022-09-17T10:51:12.222Z,62.21
2022-09-17T10:54:07.324Z,62.57
2022-09-17T10:56:38.730Z,61.91
2022-09-17T10:59:24.564Z,62.53
2022-09-17T11:02:09.292Z,62.62
2022-09-17T11:04:49.760Z,62.13
2022-09-17T11:07:34.140Z,62.28
2022-09-17T11:10:10.867Z,62.28
2022-09-17T11:12:58.254Z,60.93
2022-09-17T11:15:37.013Z,61.34
2022-09-17T11:18:34.075Z,60.86
2022-09-17T11:21:17.552Z,61.00
2022-09-17T11:24:15.556Z,61.59
2022-09-17T11:26:47.439Z,60.97
2022-09-17T11:29:37.697Z,61.48
2022-09-17T11:32:16.369Z,61.52
2022-09-17T11:34:48.672Z,61.91
2022-09-17T11:37:23.709Z,61.53
2022-09-17T11:39:57.674Z,61.95
2022-09-17T11:42:30.609Z,61.47
2022-09-17T11:45:03.801Z,61.97
2022-09-17T11:47:35.780Z,62.06
2022-09-17T11:50:12.298Z,61.48
2022-09-17T11:52:46.954Z,62.59
2022-09-17T11:55:21.937Z,62.63
2022-09-17T11:57:56.284Z,63.70
2022-09-17T12:00:25.542Z,63.93
2022-09-17T12:02:58.892Z,63.41
2022-09-17T12:05:30.295Z,63.42
2022-09-17T12:08:10.227Z,62.77
2022-09-17T12:10:46.967Z,62.25
2022-09-17T12:13:23.287Z,61.67
2022-09-17T12:15:57.310Z,61.66
2022-09-17T12:18:39.928Z,62.16
2022-09-17T12:21:10.751Z,62.76
2022-09-17T12:23:44.250Z,61.61
2022-09-17T12:26:25.983Z,60.08
2022-09-17T12:29:02.102Z,59.90
2022-09-17T12:31:37.543Z,60.06
2022-09-17T12:34:11.790Z,59.73
2022-09-17T12:36:51.274Z,60.19
2022-09-17T12:40:03.434Z,58.99
2022-09-17T12:42:52.633Z,59.17
2022-09-17T12:45:36.123Z,58.52
2022-09-17T12:48:43.535Z,58.92
2022-09-17T12:51:21.111Z,59.13
2022-09-17T12:54:01.446Z,59.87
2022-09-17T12:56:44.162Z,59.61
2022-09-17T12:59:15.839Z,58.91
2022-09-17T13:01:53.515Z,59.32
2022-09-17T13:05:07.289Z,60.27
2022-09-17T13:08:06.933Z,60.45
2022-09-17T13:11:08.133Z,60.89
2022-09-17T13:13:43.231Z,61.17
2022-09-17T13:16:20.074Z,60.88
2022-09-17T13:19:16.484Z,58.84
2022-09-17T13:21:54.463Z,58.28
2022-09-17T13:24:25.624Z,57.76
2022-09-17T13:26:55.019Z,57.98
2022-09-17T13:29:59.514Z,58.07
2022-09-17T13:32:47.109Z,58.52
2022-09-17T13:35:49.314Z,59.03
2022-09-17T13:38:23.693Z,59.05
2022-09-17T13:40:52.524Z,59.98
2022-09-17T13:43:26.928Z,59.65
2022-09-17T13:46:14.576Z,59.89
2022-09-17T13:48:50.286Z,60.39
2022-09-17T13:51:53.539Z,60.40
2022-09-17T13:54:25.698Z,61.72
2022-09-17T13:57:09.759Z,60.18
2022-09-17T13:59:38.993Z,60.36
2022-09-17T14:02:36.589Z,58.70
2022-09-17T14:05:30.803Z,58.09
2022-09-17T14:08:30.837Z,58.33
2022-09-17T14:11:03.060Z,55.79
2022-09-17T14:13:45.042Z,56.63
2022-09-17T14:16:47.364Z,56.32
2022-09-17T14:19:51.007Z,55.82
2022-09-17T14:22:26.046Z,55.64
2022-09-17T14:24:55.846Z,55.17
2022-09-17T14:27:47.736Z,55.14
2022-09-17T14:30:19.909Z,56.00
2022-09-17T14:33:00.107Z,55.84
2022-09-17T14:35:33.203Z,55.42
2022-09-17T14:38:04.085Z,55.63
2022-09-17T14:40:35.740Z,55.93
2022-09-17T14:43:05.153Z,58.09
2022-09-17T14:45:34.734Z,59.18
2022-09-17T14:48:37.492Z,59.24
2022-09-17T14:51:30.676Z,58.84
2022-09-17T14:54:19.835Z,59.01
2022-09-17T14:56:56.466Z,58.97
2022-09-17T14:59:31.496Z,59.34
2022-09-17T15:04:48.153Z,60.13
2022-09-17T15:07:16.524Z,60.36
2022-09-17T15:09:44.270Z,61.03
2022-09-17T15:12:18.794Z,60.86
2022-09-17T15:14:49.515Z,60.87
2022-09-17T15:17:20.547Z,61.26
2022-09-17T15:19:51.500Z,61.47
2022-09-17T15:22:24.047Z,61.92
2022-09-17T15:24:56.973Z,61.82
2022-09-17T15:27:30.518Z,62.12
2022-09-17T15:30:04.197Z,61.37
2022-09-17T15:32:33.950Z,61.44
2022-09-17T15:35:19.672Z,61.33
2022-09-17T15:38:18.509Z,61.01
2022-09-17T15:40:41.366Z,61.14
2022-09-17T15:43:18.525Z,60.99
2022-09-17T15:45:48.330Z,61.11
2022-09-17T15:48:26.021Z,60.89
2022-09-17T15:50:56.442Z,61.21
2022-09-17T15:53:27.095Z,61.05
2022-09-17T15:56:07.733Z,61.45
2022-09-17T15:58:52.595Z,61.72
2022-09-17T16:01:56.760Z,61.50
2022-09-17T16:04:32.066Z,60.49
2022-09-17T16:07:30.358Z,60.50
2022-09-17T16:09:59.981Z,61.01
2022-09-17T16:12:30.371Z,61.03
2022-09-17T16:15:00.822Z,60.38
2022-09-17T16:17:36.229Z,60.90
2022-09-17T16:20:10.989Z,61.20
2022-09-17T16:22:39.185Z,61.49
2022-09-17T16:25:07.806Z,61.96
2022-09-17T16:27:50.866Z,61.27
2022-09-17T16:30:21.665Z,61.09
2022-09-17T16:32:50.149Z,60.64
2022-09-17T16:35:21.281Z,60.93
2022-09-17T16:37:50.692Z,61.02
2022-09-17T16:40:19.036Z,61.03
2022-09-17T16:42:48.354Z,61.07
2022-09-17T16:45:17.253Z,61.53
2022-09-17T16:47:45.083Z,61.39
2022-09-17T16:50:16.480Z,61.20
2022-09-17T16:52:46.811Z,61.37
2022-09-17T16:55:17.375Z,61.52
2022-09-17T16:57:45.226Z,61.84
2022-09-17T17:00:16.975Z,62.02
2022-09-17T17:02:45.400Z,61.86
2022-09-17T17:05:13.200Z,61.91
2022-09-17T17:07:41.353Z,62.11
2022-09-17T17:10:11.934Z,62.07
2022-09-17T17:12:39.673Z,61.65
2022-09-17T17:15:09.615Z,62.29
2022-09-17T17:17:37.906Z,61.99
2022-09-17T17:20:08.395Z,62.28
2022-09-17T17:22:37.502Z,62.36
2022-09-17T17:25:06.114Z,62.33
2022-09-17T17:27:36.317Z,62.13
2022-09-17T17:30:09.255Z,61.84
2022-09-17T17:32:38.613Z,61.97
2022-09-17T17:35:07.829Z,61.69
2022-09-17T17:37:35.572Z,62.01
2022-09-17T17:40:08.365Z,62.27
2022-09-17T17:42:39.955Z,62.19
2022-09-17T17:45:09.208Z,62.24
2022-09-17T17:47:37.963Z,62.12
2022-09-17T17:50:06.641Z,62.27
2022-09-17T17:52:34.988Z,62.17
2022-09-17T17:55:02.850Z,62.29
2022-09-17T17:57:30.760Z,62.89
2022-09-17T18:00:00.749Z,63.07
2022-09-17T18:02:29.180Z,62.86
2022-09-17T18:05:00.782Z,62.88
2022-09-17T18:07:32.086Z,63.62
2022-09-17T18:10:00.996Z,64.05
2022-09-17T18:12:29.344Z,63.75
2022-09-17T18:14:58.862Z,63.87
2022-09-17T18:17:32.041Z,63.85
2022-09-17T18:20:00.042Z,64.12
2022-09-17T18:22:28.426Z,64.10
2022-09-17T18:24:56.199Z,64.18
2022-09-17T18:27:24.370Z,64.87
2022-09-17T18:29:52.117Z,64.76
2022-09-17T18:32:19.861Z,65.05
2022-09-17T18:34:51.165Z,64.99
2022-09-17T18:37:19.863Z,64.59
2022-09-17T18:40:04.909Z,64.99
2022-09-17T18:42:33.529Z,65.27
2022-09-17T18:45:01.757Z,65.81
2022-09-17T18:47:29.856Z,65.66
2022-09-17T18:49:59.765Z,66.20
2022-09-17T18:52:28.290Z,65.72
2022-09-17T18:54:56.437Z,65.81
2022-09-17T18:57:24.162Z,65.46
2022-09-17T18:59:52.569Z,66.08
2022-09-17T19:02:20.960Z,66.12
2022-09-17T19:04:48.993Z,66.26
2022-09-17T19:07:18.592Z,66.37
2022-09-17T19:09:47.956Z,66.26
2022-09-17T19:12:15.772Z,66.69
2022-09-17T19:14:44.170Z,66.19
2022-09-17T19:17:12.326Z,66.16
2022-09-17T19:19:40.103Z,66.53
2022-09-17T19:22:08.360Z,66.12
2022-09-17T19:24:38.828Z,66.39
2022-09-17T19:27:07.586Z,66.62
2022-09-17T19:29:35.844Z,66.45
2022-09-17T19:32:04.044Z,66.73
2022-09-17T19:34:31.924Z,66.69
2022-09-17T19:36:59.800Z,66.31
2022-09-17T19:39:28.101Z,66.08
2022-09-17T19:41:57.216Z,66.15
2022-09-17T19:44:25.205Z,66.01
2022-09-17T19:46:53.716Z,66.54
2022-09-17T19:49:21.553Z,66.27
2022-09-17T19:51:49.759Z,66.66
2022-09-17T19:54:17.481Z,65.99
2022-09-17T19:56:45.416Z,66.37
2022-09-17T19:59:15.235Z,66.02
2022-09-17T20:01:49.244Z,66.42
2022-09-17T20:04:20.429Z,66.03
2022-09-17T20:06:48.144Z,66.12
2022-09-17T20:09:15.909Z,65.65
2022-09-17T20:11:44.034Z,65.78
2022-09-17T20:14:12.709Z,65.51
2022-09-17T20:16:43.907Z,65.62
2022-09-17T20:19:15.370Z,65.77
2022-09-17T20:21:43.191Z,65.36
2022-09-17T20:24:11.480Z,65.31
2022-09-17T20:26:39.246Z,65.75
2022-09-17T20:29:07.025Z,65.72
2022-09-17T20:31:35.033Z,65.60
2022-09-17T20:36:36.093Z,65.75
2022-09-17T20:39:18.188Z,65.65
2022-09-17T20:41:47.831Z,65.62
2022-09-17T20:44:15.652Z,65.54
2022-09-17T20:46:43.463Z,65.70
2022-09-17T20:49:12.910Z,65.56
2022-09-17T20:51:40.638Z,65.04
2022-09-17T20:54:08.658Z,65.35
2022-09-17T20:56:37.372Z,65.52
2022-09-17T20:59:15.097Z,65.26
2022-09-17T21:01:45.020Z,65.42
2022-09-17T21:04:16.807Z,65.91
2022-09-17T21:06:45.533Z,65.99
2022-09-17T21:09:16.747Z,65.79
2022-09-17T21:11:45.204Z,66.09
2022-09-17T21:14:15.255Z,65.77
2022-09-17T21:16:43.074Z,65.86
2022-09-17T21:19:16.544Z,65.69
2022-09-17T21:21:44.842Z,65.63
2022-09-17T21:24:12.860Z,65.95
2022-09-17T21:26:40.995Z,65.39
2022-09-17T21:29:08.921Z,65.58
2022-09-17T21:31:38.168Z,65.40
2022-09-17T21:34:08.345Z,65.35
2022-09-17T21:36:39.336Z,65.68
2022-09-17T21:39:10.902Z,65.68
2022-09-17T21:41:42.547Z,65.42
2022-09-17T21:44:11.252Z,64.97
2022-09-17T21:46:41.084Z,65.35
2022-09-17T21:49:09.320Z,65.34
2022-09-17T21:51:39.891Z,65.72
2022-09-17T21:54:10.016Z,66.01
2022-09-17T21:56:38.576Z,65.49
2022-09-17T21:59:08.691Z,65.55
2022-09-17T22:01:40.280Z,65.45
2022-09-17T22:04:09.402Z,66.16
2022-09-17T22:06:39.079Z,65.81
2022-09-17T22:09:08.985Z,65.77
2022-09-17T22:11:38.368Z,65.97
2022-09-17T22:14:09.484Z,65.85
2022-09-17T22:16:40.025Z,66.30
2022-09-17T22:19:09.247Z,66.55
2022-09-17T22:21:40.766Z,66.19
2022-09-17T22:24:09.169Z,66.46
2022-09-17T22:26:40.164Z,66.56
2022-09-17T22:29:09.447Z,66.75
2022-09-17T22:31:37.491Z,67.15
2022-09-17T22:34:09.102Z,67.02
2022-09-17T22:36:38.684Z,66.83
2022-09-17T22:39:07.087Z,66.92
2022-09-17T22:41:37.172Z,67.37
2022-09-17T22:44:06.307Z,67.10
2022-09-17T22:46:35.980Z,67.35
2022-09-17T22:49:04.047Z,67.14
2022-09-17T22:51:33.193Z,67.34
2022-09-17T22:54:02.906Z,67.30
2022-09-17T22:56:31.608Z,67.17
2022-09-17T22:59:00.260Z,67.65
2022-09-17T23:01:30.002Z,67.77
2022-09-17T23:03:59.602Z,67.61
2022-09-17T23:06:29.552Z,67.74
2022-09-17T23:08:57.901Z,67.47
2022-09-17T23:11:28.840Z,67.39
2022-09-17T23:13:58.836Z,67.65
2022-09-17T23:16:27.113Z,67.41
2022-09-17T23:18:55.292Z,67.86
2022-09-17T23:21:23.294Z,67.62
2022-09-17T23:23:53.459Z,67.38
2022-09-17T23:26:24.815Z,66.98
2022-09-17T23:28:54.540Z,66.96
2022-09-17T23:31:24.482Z,66.50
2022-09-17T23:33:53.340Z,66.40
2022-09-17T23:36:22.778Z,66.73
2022-09-17T23:38:52.125Z,66.52
2022-09-17T23:41:22.155Z,66.11
2022-09-17T23:43:52.526Z,66.24
2022-09-17T23:46:23.788Z,66.51
2022-09-17T23:48:53.769Z,66.20
2022-09-17T23:51:22.341Z,65.79
2022-09-17T23:53:50.400Z,66.39
2022-09-17T23:56:21.681Z,66.03
2022-09-17T23:58:50.499Z,66.34
